createdAt,value
2022-08-29T00:00:20.935Z,15.24
2022-08-29T00:01:10.390Z,15.24
2022-08-29T00:02:11.427Z,15.27
2022-08-29T00:03:12.563Z,15.22
2022-08-29T00:04:11.293Z,15.14
2022-08-29T00:05:10.910Z,15.10
2022-08-29T00:06:10.962Z,15.14
2022-08-29T00:07:11.139Z,15.16
2022-08-29T00:08:10.582Z,15.15
2022-08-29T00:09:10.841Z,15.09
2022-08-29T00:10:11.142Z,15.09
2022-08-29T00:11:10.430Z,15.10
2022-08-29T00:12:11.457Z,15.07
2022-08-29T00:13:10.881Z,15.01
2022-08-29T00:14:38.596Z,15.03
2022-08-29T00:15:11.142Z,15.03
2022-08-29T00:16:10.739Z,15.01
2022-08-29T00:17:11.338Z,15.01
2022-08-29T00:18:11.393Z,15.03
2022-08-29T00:19:11.404Z,15.03
2022-08-29T00:20:11.160Z,15.01
2022-08-29T00:21:10.877Z,15.01
2022-08-29T00:22:10.986Z,15.03
2022-08-29T00:23:10.545Z,15.02
2022-08-29T00:24:10.770Z,15.05
2022-08-29T00:25:11.388Z,15.06
2022-08-29T00:26:10.779Z,15.02
2022-08-29T00:27:10.817Z,15.00
2022-08-29T00:28:11.148Z,15.01
2022-08-29T00:29:10.224Z,15.00
2022-08-29T00:30:10.988Z,14.96
2022-08-29T00:31:10.329Z,14.98
2022-08-29T00:32:44.018Z,15.00
2022-08-29T00:33:10.757Z,15.00
2022-08-29T00:34:10.942Z,14.97
2022-08-29T00:35:11.021Z,14.93
2022-08-29T00:36:11.526Z,14.93
2022-08-29T00:37:10.865Z,14.92
2022-08-29T00:38:11.758Z,14.90
2022-08-29T00:39:13.164Z,14.88
2022-08-29T00:40:10.766Z,14.89
2022-08-29T00:41:10.788Z,14.86
2022-08-29T00:42:11.004Z,14.81
2022-08-29T00:43:10.246Z,14.73
2022-08-29T00:44:10.500Z,14.66
2022-08-29T00:45:10.897Z,14.64
2022-08-29T00:46:11.099Z,14.61
2022-08-29T00:47:10.565Z,14.60
2022-08-29T00:48:10.809Z,14.59
2022-08-29T00:49:10.840Z,14.53
2022-08-29T00:50:11.217Z,14.51
2022-08-29T00:51:10.658Z,14.48
2022-08-29T00:52:10.934Z,14.47
2022-08-29T00:53:11.536Z,14.47
2022-08-29T00:54:11.106Z,14.51
2022-08-29T00:55:10.651Z,14.55
2022-08-29T00:56:11.117Z,14.59
2022-08-29T00:57:10.584Z,14.67
2022-08-29T00:58:11.089Z,14.72
2022-08-29T00:59:10.774Z,14.77
2022-08-29T01:00:12.051Z,14.79
2022-08-29T01:01:10.678Z,14.80
2022-08-29T01:02:10.907Z,14.79
2022-08-29T01:03:11.235Z,14.81
2022-08-29T01:05:10.155Z,14.83
2022-08-29T01:06:10.120Z,14.84
2022-08-29T01:07:10.152Z,14.84
2022-08-29T01:08:10.526Z,14.81
2022-08-29T01:09:10.798Z,14.79
2022-08-29T01:11:10.992Z,14.75
2022-08-29T01:12:10.343Z,14.75
2022-08-29T01:13:10.647Z,14.75
2022-08-29T01:14:10.799Z,14.75
2022-08-29T01:15:11.403Z,14.72
2022-08-29T01:16:10.799Z,14.67
2022-08-29T01:17:10.921Z,14.65
2022-08-29T01:18:11.448Z,14.63
2022-08-29T01:19:10.770Z,14.54
2022-08-29T01:20:11.061Z,14.46
2022-08-29T01:21:10.521Z,14.36
2022-08-29T01:22:10.748Z,14.34
2022-08-29T01:23:11.183Z,14.26
2022-08-29T01:24:13.737Z,14.27
2022-08-29T01:25:11.028Z,14.30
2022-08-29T01:26:10.685Z,14.34
2022-08-29T01:27:11.011Z,14.35
2022-08-29T01:28:11.041Z,14.35
2022-08-29T01:29:10.491Z,14.34
2022-08-29T01:30:11.455Z,14.34
2022-08-29T01:31:10.929Z,14.33
2022-08-29T01:32:11.104Z,14.31
2022-08-29T01:33:13.486Z,14.30
2022-08-29T01:34:10.751Z,14.27
2022-08-29T01:35:11.228Z,14.27
2022-08-29T01:36:10.756Z,14.24
2022-08-29T01:37:16.127Z,14.23
2022-08-29T01:38:10.122Z,14.22
2022-08-29T01:39:10.386Z,14.24
2022-08-29T01:40:10.837Z,14.27
2022-08-29T01:41:11.072Z,14.27
2022-08-29T01:42:10.094Z,14.24
2022-08-29T01:43:10.416Z,14.23
2022-08-29T01:44:10.655Z,14.23
2022-08-29T01:45:13.567Z,14.25
2022-08-29T01:46:10.851Z,14.26
2022-08-29T01:47:10.756Z,14.25
2022-08-29T01:48:10.881Z,14.23
2022-08-29T01:49:10.948Z,14.18
2022-08-29T01:50:11.252Z,14.10
2022-08-29T01:51:10.687Z,14.07
2022-08-29T01:52:10.874Z,14.04
2022-08-29T01:53:11.082Z,14.01
2022-08-29T01:54:10.562Z,13.98
2022-08-29T01:55:10.975Z,14.01
2022-08-29T01:56:11.186Z,14.08
2022-08-29T01:57:16.379Z,14.09
2022-08-29T01:58:11.203Z,14.05
2022-08-29T01:59:10.455Z,14.05
2022-08-29T02:00:11.984Z,14.10
2022-08-29T02:01:10.476Z,14.10
2022-08-29T02:02:10.890Z,14.07
2022-08-29T02:03:10.982Z,14.05
2022-08-29T02:04:10.435Z,14.06
2022-08-29T02:05:11.341Z,14.04
2022-08-29T02:06:10.789Z,13.96
2022-08-29T02:07:16.323Z,13.92
2022-08-29T02:08:10.752Z,13.87
2022-08-29T02:09:14.691Z,13.85
2022-08-29T02:10:11.003Z,13.84
2022-08-29T02:11:10.333Z,13.90
2022-08-29T02:12:11.159Z,13.95
2022-08-29T02:13:10.424Z,13.95
2022-08-29T02:14:13.247Z,13.93
2022-08-29T02:15:11.082Z,13.91
2022-08-29T02:16:10.421Z,13.96
2022-08-29T02:17:10.505Z,13.98
2022-08-29T02:18:11.175Z,13.95
2022-08-29T02:19:10.640Z,13.92
2022-08-29T02:20:11.208Z,13.85
2022-08-29T02:21:10.669Z,13.84
2022-08-29T02:22:10.360Z,13.82
2022-08-29T02:23:33.481Z,13.80
2022-08-29T02:24:28.657Z,13.75
2022-08-29T02:25:11.168Z,13.75
2022-08-29T02:26:10.451Z,13.74
2022-08-29T02:27:12.987Z,13.81
2022-08-29T02:28:10.390Z,13.79
2022-08-29T02:29:10.761Z,13.78
2022-08-29T02:30:11.429Z,13.82
2022-08-29T02:31:10.903Z,13.84
2022-08-29T02:32:11.554Z,13.73
2022-08-29T02:33:11.005Z,13.73
2022-08-29T02:34:11.565Z,13.81
2022-08-29T02:35:13.366Z,13.84
2022-08-29T02:36:11.143Z,13.84
2022-08-29T02:37:10.526Z,13.81
2022-08-29T02:38:10.514Z,13.82
2022-08-29T02:39:10.921Z,13.82
2022-08-29T02:40:11.349Z,13.82
2022-08-29T02:41:16.014Z,13.82
2022-08-29T02:42:10.323Z,13.83
2022-08-29T02:43:10.490Z,13.78
2022-08-29T02:44:10.588Z,13.72
2022-08-29T02:45:10.949Z,13.70
2022-08-29T02:46:10.802Z,13.67
2022-08-29T02:47:11.115Z,13.66
2022-08-29T02:48:10.438Z,13.66
2022-08-29T02:49:10.698Z,13.70
2022-08-29T02:50:10.774Z,13.70
2022-08-29T02:51:10.807Z,13.68
2022-08-29T02:52:11.070Z,13.69
2022-08-29T02:53:10.286Z,13.70
2022-08-29T02:54:10.333Z,13.70
2022-08-29T02:55:10.947Z,13.67
2022-08-29T02:56:15.433Z,13.64
2022-08-29T02:57:10.674Z,13.59
2022-08-29T02:58:10.733Z,13.56
2022-08-29T02:59:10.894Z,13.52
2022-08-29T03:00:12.516Z,13.51
2022-08-29T03:01:10.949Z,13.67
2022-08-29T03:02:10.830Z,13.46
2022-08-29T03:03:10.930Z,0
2022-08-29T03:04:10.899Z,26
2022-08-29T03:05:11.145Z,8
2022-08-29T03:07:10.899Z,12
2022-08-29T03:12:10.828Z,13.48
2022-08-29T03:13:11.115Z,13.48
2022-08-29T03:14:10.493Z,13.52
2022-08-29T03:15:11.176Z,13.52
2022-08-29T03:16:10.891Z,10
2022-08-29T03:17:10.993Z,13.53
2022-08-29T03:18:10.354Z,13.56
2022-08-29T03:19:10.675Z,13.55
2022-08-29T03:20:11.108Z,10
2022-08-29T03:24:11.060Z,13.52
2022-08-29T03:25:10.727Z,13.52
2022-08-29T03:26:11.031Z,13.48
2022-08-29T03:27:10.389Z,13.49
2022-08-29T03:28:10.624Z,13.43
2022-08-29T03:29:10.746Z,13.40
2022-08-29T03:30:14.568Z,13.38
2022-08-29T03:31:11.292Z,13.34
2022-08-29T03:32:10.514Z,13.27
2022-08-29T03:33:15.283Z,13.29
2022-08-29T03:34:10.370Z,13.32
2022-08-29T03:35:10.614Z,13.34
2022-08-29T03:37:10.750Z,13.36
2022-08-29T03:38:11.047Z,13.29
2022-08-29T03:39:10.332Z,13.23
2022-08-29T03:40:10.877Z,13.21
2022-08-29T03:41:11.158Z,13.15
2022-08-29T03:42:10.224Z,0
2022-08-29T03:43:10.640Z,13.13
2022-08-29T03:44:10.856Z,13.15
2022-08-29T03:45:11.339Z,13.17
2022-08-29T03:46:10.724Z,13.21
2022-08-29T03:47:10.895Z,13.19
2022-08-29T03:48:11.258Z,13.13
2022-08-29T03:49:10.482Z,13.04
2022-08-29T03:50:10.860Z,12.95
2022-08-29T03:51:11.252Z,12.94
2022-08-29T03:52:10.418Z,12.93
2022-08-29T03:53:10.691Z,12.97
2022-08-29T03:54:10.767Z,13.03
2022-08-29T03:55:11.184Z,13.07
2022-08-29T03:56:18.631Z,13.10
2022-08-29T03:57:10.590Z,13.14
2022-08-29T03:58:11.233Z,13.17
2022-08-29T03:59:10.461Z,13.20
2022-08-29T04:00:11.996Z,13.20
2022-08-29T04:01:10.370Z,13.21
2022-08-29T04:02:11.048Z,13.21
2022-08-29T04:03:11.161Z,13.21
2022-08-29T04:04:16.018Z,13.21
2022-08-29T04:05:12.006Z,13.21
2022-08-29T04:06:10.260Z,13.21
2022-08-29T04:07:10.602Z,13.20
2022-08-29T04:08:10.480Z,13.18
2022-08-29T04:09:10.727Z,13.17
2022-08-29T04:10:11.288Z,13.11
2022-08-29T04:11:11.071Z,13.07
2022-08-29T04:12:10.559Z,13.04
2022-08-29T04:13:10.767Z,13.01
2022-08-29T04:14:11.053Z,12.98
2022-08-29T04:15:10.861Z,13.01
2022-08-29T04:16:19.153Z,13.01
2022-08-29T04:17:10.639Z,13.01
2022-08-29T04:18:11.875Z,12.98
2022-08-29T04:19:12.514Z,12.95
2022-08-29T04:20:11.307Z,12.98
2022-08-29T04:21:10.522Z,13.01
2022-08-29T04:22:10.665Z,13.00
2022-08-29T04:23:10.973Z,12.96
2022-08-29T04:24:10.402Z,12.96
2022-08-29T04:25:11.056Z,12.99
2022-08-29T04:26:39.325Z,13.03
2022-08-29T04:27:10.874Z,13.03
2022-08-29T04:28:11.348Z,13.03
2022-08-29T04:29:10.767Z,13.04
2022-08-29T04:30:11.609Z,13.05
2022-08-29T04:31:11.084Z,13.06
2022-08-29T04:32:10.918Z,13.06
2022-08-29T04:33:12.838Z,13.07
2022-08-29T04:34:10.886Z,13.08
2022-08-29T04:35:11.330Z,13.06
2022-08-29T04:36:15.388Z,13.06
2022-08-29T04:37:10.612Z,13.07
2022-08-29T04:38:11.381Z,13.08
2022-08-29T04:39:10.958Z,13.07
2022-08-29T04:40:12.278Z,13.05
2022-08-29T04:41:10.919Z,13.06
2022-08-29T04:42:11.033Z,13.08
2022-08-29T04:43:10.645Z,13.17
2022-08-29T04:44:11.270Z,13.20
2022-08-29T04:45:11.312Z,13.20
2022-08-29T04:47:11.139Z,13.24
2022-08-29T04:48:10.982Z,13.29
2022-08-29T04:49:10.689Z,13.26
2022-08-29T04:50:11.344Z,13.25
2022-08-29T04:51:10.632Z,13.26
2022-08-29T04:52:10.988Z,13.26
2022-08-29T04:53:10.503Z,13.26
2022-08-29T04:54:10.759Z,13.25
2022-08-29T04:55:11.085Z,13.25
2022-08-29T04:56:11.358Z,13.25
2022-08-29T04:57:11.339Z,13.24
2022-08-29T04:58:13.524Z,13.23
2022-08-29T04:59:10.907Z,13.22
2022-08-29T05:00:12.271Z,13.23
2022-08-29T05:01:11.054Z,13.22
2022-08-29T05:02:10.506Z,13.20
2022-08-29T05:03:11.136Z,13.16
2022-08-29T05:04:14.812Z,13.18
2022-08-29T05:05:11.487Z,13.20
2022-08-29T05:06:10.808Z,13.24
2022-08-29T05:07:11.148Z,13.24
2022-08-29T05:08:10.954Z,13.27
2022-08-29T05:09:10.605Z,13.30
2022-08-29T05:10:11.113Z,13.34
2022-08-29T05:11:10.439Z,13.32
2022-08-29T05:12:13.779Z,13.32
2022-08-29T05:13:10.922Z,13.32
2022-08-29T05:14:11.460Z,13.31
2022-08-29T05:15:11.247Z,13.33
2022-08-29T05:16:10.874Z,13.32
2022-08-29T05:17:11.399Z,13.32
2022-08-29T05:18:10.872Z,13.36
2022-08-29T05:19:16.066Z,13.38
2022-08-29T05:20:10.805Z,13.36
2022-08-29T05:21:11.582Z,13.34
2022-08-29T05:22:11.575Z,13.32
2022-08-29T05:23:10.961Z,13.27
2022-08-29T05:24:10.933Z,13.27
2022-08-29T05:25:15.873Z,13.26
2022-08-29T05:26:10.470Z,13.27
2022-08-29T05:27:10.873Z,13.28
2022-08-29T05:28:11.477Z,13.30
2022-08-29T05:29:12.457Z,13.30
2022-08-29T05:30:10.993Z,13.30
2022-08-29T05:31:15.528Z,13.31
2022-08-29T05:32:10.946Z,13.32
2022-08-29T05:33:11.246Z,13.32
2022-08-29T05:34:36.266Z,13.30
2022-08-29T05:35:10.658Z,13.30
2022-08-29T05:36:11.002Z,13.31
2022-08-29T05:37:10.454Z,13.32
2022-08-29T05:38:13.032Z,13.36
2022-08-29T05:39:13.890Z,13.38
2022-08-29T05:40:11.659Z,13.39
2022-08-29T05:41:10.832Z,13.43
2022-08-29T05:42:11.274Z,13.44
2022-08-29T05:43:10.962Z,13.46
2022-08-29T05:44:11.095Z,13.46
2022-08-29T05:45:10.812Z,13.47
2022-08-29T05:46:11.374Z,13.49
2022-08-29T05:47:10.637Z,13.52
2022-08-29T05:48:10.747Z,13.54
2022-08-29T05:49:10.943Z,13.53
2022-08-29T05:50:11.545Z,13.53
2022-08-29T05:51:10.889Z,13.53
2022-08-29T05:52:10.954Z,13.56
2022-08-29T05:53:11.185Z,13.57
2022-08-29T05:54:10.748Z,13.59
2022-08-29T05:55:11.275Z,13.61
2022-08-29T05:56:10.635Z,13.63
2022-08-29T05:57:14.199Z,13.63
2022-08-29T05:58:11.198Z,13.64
2022-08-29T05:59:10.599Z,13.64
2022-08-29T06:00:11.745Z,13.64
2022-08-29T06:01:11.138Z,13.64
2022-08-29T06:02:10.752Z,13.66
2022-08-29T06:03:11.422Z,13.69
2022-08-29T06:04:11.349Z,13.70
2022-08-29T06:05:14.176Z,13.69
2022-08-29T06:06:10.877Z,13.69
2022-08-29T06:07:11.363Z,13.66
2022-08-29T06:08:11.225Z,13.65
2022-08-29T06:09:11.052Z,13.67
2022-08-29T06:10:10.856Z,13.70
2022-08-29T06:11:11.719Z,13.72
2022-08-29T06:12:11.556Z,13.74
2022-08-29T06:13:11.091Z,13.77
2022-08-29T06:14:10.695Z,13.82
2022-08-29T06:15:11.701Z,13.84
2022-08-29T06:16:11.656Z,13.84
2022-08-29T06:17:12.804Z,13.86
2022-08-29T06:18:11.263Z,13.87
2022-08-29T06:19:10.974Z,13.87
2022-08-29T06:20:11.164Z,13.87
2022-08-29T06:21:10.820Z,13.90
2022-08-29T06:22:13.689Z,13.93
2022-08-29T06:23:10.826Z,13.96
2022-08-29T06:24:11.410Z,13.99
2022-08-29T06:25:41.822Z,14.04
2022-08-29T06:26:11.435Z,14.04
2022-08-29T06:27:12.700Z,14.05
2022-08-29T06:28:11.039Z,14.07
2022-08-29T06:29:10.444Z,14.10
2022-08-29T06:30:11.435Z,14.15
2022-08-29T06:31:10.858Z,14.16
2022-08-29T06:32:11.292Z,14.19
2022-08-29T06:33:11.144Z,14.22
2022-08-29T06:34:10.858Z,14.25
2022-08-29T06:35:11.391Z,14.28
2022-08-29T06:36:10.748Z,14.31
2022-08-29T06:37:11.037Z,14.33
2022-08-29T06:38:17.207Z,14.34
2022-08-29T06:39:10.908Z,14.35
2022-08-29T06:40:11.921Z,14.39
2022-08-29T06:41:11.490Z,14.40
2022-08-29T06:42:11.003Z,14.42
2022-08-29T06:43:15.694Z,14.44
2022-08-29T06:44:11.141Z,14.45
2022-08-29T06:45:18.984Z,14.48
2022-08-29T06:46:10.763Z,14.48
2022-08-29T06:47:11.317Z,14.50
2022-08-29T06:48:10.864Z,14.52
2022-08-29T06:49:11.301Z,14.55
2022-08-29T06:50:10.851Z,14.55
2022-08-29T06:51:11.205Z,14.57
2022-08-29T06:52:12.980Z,14.60
2022-08-29T06:53:37.349Z,14.60
2022-08-29T06:54:11.280Z,14.60
2022-08-29T06:55:10.929Z,14.62
2022-08-29T06:56:15.121Z,14.66
2022-08-29T06:57:10.621Z,14.69
2022-08-29T06:58:11.095Z,14.72
2022-08-29T06:59:10.521Z,14.72
2022-08-29T07:00:25.409Z,14.75
2022-08-29T07:01:11.240Z,14.75
2022-08-29T07:02:10.864Z,14.79
2022-08-29T07:03:30.312Z,14.88
2022-08-29T07:04:20.839Z,14.88
2022-08-29T07:05:10.663Z,14.91
2022-08-29T07:06:11.058Z,14.93
2022-08-29T07:07:10.747Z,14.96
2022-08-29T07:08:11.387Z,14.97
2022-08-29T07:09:11.084Z,15.00
2022-08-29T07:10:10.944Z,15.03
2022-08-29T07:11:11.348Z,15.06
2022-08-29T07:12:10.637Z,15.12
2022-08-29T07:13:10.919Z,15.16
2022-08-29T07:14:11.645Z,15.23
2022-08-29T07:15:11.667Z,15.33
2022-08-29T07:16:11.386Z,15.30
2022-08-29T07:17:10.810Z,15.27
2022-08-29T07:18:10.951Z,15.24
2022-08-29T07:19:10.666Z,15.20
2022-08-29T07:20:24.386Z,15.18
2022-08-29T07:21:11.042Z,15.20
2022-08-29T07:22:11.027Z,15.23
2022-08-29T07:23:17.690Z,15.25
2022-08-29T07:24:11.360Z,15.23
2022-08-29T07:25:11.370Z,15.25
2022-08-29T07:26:11.179Z,15.26
2022-08-29T07:27:10.741Z,15.25
2022-08-29T07:28:14.093Z,15.24
2022-08-29T07:29:11.033Z,15.27
2022-08-29T07:30:11.254Z,15.30
2022-08-29T07:31:11.194Z,15.33
2022-08-29T07:32:11.124Z,15.35
2022-08-29T07:33:38.877Z,15.41
2022-08-29T07:34:11.475Z,15.41
2022-08-29T07:35:18.603Z,15.43
2022-08-29T07:36:10.914Z,15.44
2022-08-29T07:37:11.401Z,15.47
2022-08-29T07:38:10.624Z,15.51
2022-08-29T07:39:11.240Z,15.54
2022-08-29T07:40:10.827Z,15.60
2022-08-29T07:41:11.188Z,15.62
2022-08-29T07:42:11.814Z,15.64
2022-08-29T07:43:13.497Z,15.68
2022-08-29T07:44:11.795Z,15.66
2022-08-29T07:45:12.482Z,15.63
2022-08-29T07:46:11.591Z,15.62
2022-08-29T07:47:11.297Z,15.66
2022-08-29T07:48:14.119Z,15.71
2022-08-29T07:50:11.463Z,15.86
2022-08-29T07:51:14.195Z,15.89
2022-08-29T07:52:10.547Z,15.93
2022-08-29T07:53:11.459Z,15.97
2022-08-29T07:54:11.638Z,15.98
2022-08-29T07:55:11.157Z,16.04
2022-08-29T07:56:10.846Z,16.11
2022-08-29T07:57:11.453Z,16.16
2022-08-29T07:58:11.362Z,16.18
2022-08-29T07:59:10.784Z,16.21
2022-08-29T08:00:12.021Z,16.29
2022-08-29T08:01:20.867Z,16.38
2022-08-29T08:02:11.606Z,16.47
2022-08-29T08:03:11.418Z,16.51
2022-08-29T08:04:11.289Z,16.54
2022-08-29T08:05:11.327Z,16.55
2022-08-29T08:06:12.887Z,16.55
2022-08-29T08:07:17.744Z,16.56
2022-08-29T08:08:19.026Z,16.53
2022-08-29T08:09:11.063Z,16.50
2022-08-29T08:10:10.726Z,16.51
2022-08-29T08:11:11.447Z,16.51
2022-08-29T08:12:12.091Z,16.52
2022-08-29T08:13:10.882Z,16.55
2022-08-29T08:14:11.320Z,16.57
2022-08-29T08:15:11.088Z,16.67
2022-08-29T08:16:10.333Z,16.78
2022-08-29T08:17:10.865Z,16.82
2022-08-29T08:18:11.534Z,16.84
2022-08-29T08:19:11.303Z,16.87
2022-08-29T08:20:10.890Z,16.86
2022-08-29T08:21:10.915Z,16.87
2022-08-29T08:22:10.950Z,16.89
2022-08-29T08:23:14.783Z,16.83
2022-08-29T08:24:16.105Z,16.79
2022-08-29T08:25:11.040Z,16.77
2022-08-29T08:26:10.973Z,16.76
2022-08-29T08:27:11.509Z,16.79
2022-08-29T08:28:11.101Z,16.81
2022-08-29T08:29:10.638Z,16.83
2022-08-29T08:30:11.706Z,16.87
2022-08-29T08:31:11.242Z,16.89
2022-08-29T08:32:10.965Z,16.94
2022-08-29T08:33:11.698Z,16.94
2022-08-29T08:34:11.132Z,16.96
2022-08-29T08:35:11.152Z,16.97
2022-08-29T08:36:10.813Z,17.01
2022-08-29T08:37:10.994Z,17.03
2022-08-29T08:38:11.297Z,17.09
2022-08-29T08:39:11.240Z,17.17
2022-08-29T08:40:11.270Z,17.30
2022-08-29T08:41:11.085Z,17.36
2022-08-29T08:42:10.895Z,17.28
2022-08-29T08:43:11.867Z,17.27
2022-08-29T08:44:11.259Z,17.28
2022-08-29T08:45:11.105Z,17.28
2022-08-29T08:46:10.980Z,17.26
2022-08-29T08:47:10.699Z,17.30
2022-08-29T08:48:11.120Z,17.35
2022-08-29T08:49:10.914Z,17.39
2022-08-29T08:50:11.630Z,17.41
2022-08-29T08:51:10.999Z,17.43
2022-08-29T08:52:15.450Z,17.42
2022-08-29T08:53:11.149Z,17.37
2022-08-29T08:54:10.616Z,17.38
2022-08-29T08:55:11.058Z,17.41
2022-08-29T08:56:10.317Z,17.47
2022-08-29T08:57:10.955Z,17.48
2022-08-29T08:58:11.557Z,17.49
2022-08-29T08:59:10.897Z,17.54
2022-08-29T09:00:12.825Z,17.59
2022-08-29T09:01:11.196Z,17.59
2022-08-29T09:02:11.362Z,17.57
2022-08-29T09:03:10.963Z,17.59
2022-08-29T09:04:10.538Z,17.64
2022-08-29T09:05:11.317Z,17.71
2022-08-29T09:06:15.893Z,17.70
2022-08-29T09:07:11.346Z,17.73
2022-08-29T09:08:11.309Z,17.73
2022-08-29T09:09:15.434Z,17.77
2022-08-29T09:10:11.257Z,17.80
2022-08-29T09:11:10.925Z,17.86
2022-08-29T09:12:11.437Z,18.04
2022-08-29T09:13:11.072Z,18.09
2022-08-29T09:14:11.088Z,18.09
2022-08-29T09:15:14.995Z,18.10
2022-08-29T09:16:10.706Z,18.12
2022-08-29T09:17:11.590Z,18.10
2022-08-29T09:18:13.615Z,18.07
2022-08-29T09:19:10.995Z,18.12
2022-08-29T09:20:10.568Z,18.25
2022-08-29T09:21:43.505Z,18.40
2022-08-29T09:22:11.406Z,18.40
2022-08-29T09:23:11.139Z,18.38
2022-08-29T09:24:10.816Z,18.37
2022-08-29T09:25:11.332Z,18.38
2022-08-29T09:26:11.248Z,18.44
2022-08-29T09:27:10.910Z,18.39
2022-08-29T09:28:11.391Z,18.40
2022-08-29T09:29:11.135Z,18.45
2022-08-29T09:30:11.015Z,18.52
2022-08-29T09:31:10.606Z,18.60
2022-08-29T09:32:11.352Z,18.65
2022-08-29T09:33:11.099Z,18.72
2022-08-29T09:34:12.119Z,18.78
2022-08-29T09:35:13.418Z,18.83
2022-08-29T09:36:30.305Z,18.84
2022-08-29T09:37:10.990Z,18.83
2022-08-29T09:38:10.492Z,18.88
2022-08-29T09:39:11.108Z,18.94
2022-08-29T09:40:10.728Z,19.00
2022-08-29T09:41:11.063Z,19.01
2022-08-29T09:42:10.381Z,19.03
2022-08-29T09:43:11.222Z,19.10
2022-08-29T09:44:10.867Z,19.18
2022-08-29T09:45:11.441Z,19.22
2022-08-29T09:46:11.949Z,19.19
2022-08-29T09:47:10.580Z,19.13
2022-08-29T09:48:11.263Z,19.17
2022-08-29T09:49:10.947Z,19.16
2022-08-29T09:50:11.705Z,19.15
2022-08-29T09:51:11.337Z,19.14
2022-08-29T09:52:38.918Z,19.04
2022-08-29T09:53:29.241Z,19.07
2022-08-29T09:54:10.893Z,19.07
2022-08-29T09:55:11.103Z,19.12
2022-08-29T09:56:10.769Z,19.22
2022-08-29T09:57:11.338Z,19.32
2022-08-29T09:58:11.398Z,19.28
2022-08-29T09:59:11.204Z,19.25
2022-08-29T10:00:12.305Z,19.23
2022-08-29T10:01:11.764Z,19.22
2022-08-29T10:02:12.836Z,19.29
2022-08-29T10:03:11.617Z,19.23
2022-08-29T10:04:11.717Z,19.22
2022-08-29T10:05:17.032Z,19.33
2022-08-29T10:06:10.425Z,19.33
2022-08-29T10:07:10.741Z,19.38
2022-08-29T10:08:11.106Z,19.44
2022-08-29T10:09:10.606Z,19.40
2022-08-29T10:10:11.194Z,19.48
2022-08-29T10:11:11.843Z,19.45
2022-08-29T10:12:11.396Z,19.44
2022-08-29T10:13:11.034Z,19.42
2022-08-29T10:14:16.188Z,19.40
2022-08-29T10:15:19.733Z,19.23
2022-08-29T10:16:11.355Z,19.16
2022-08-29T10:17:11.429Z,19.19
2022-08-29T10:18:11.276Z,19.30
2022-08-29T10:19:10.971Z,19.34
2022-08-29T10:20:11.588Z,19.37
2022-08-29T10:21:11.171Z,19.40
2022-08-29T10:22:10.788Z,19.45
2022-08-29T10:23:11.307Z,19.52
2022-08-29T10:24:13.642Z,19.60
2022-08-29T10:25:11.655Z,19.63
2022-08-29T10:26:11.252Z,19.64
2022-08-29T10:27:10.914Z,19.62
2022-08-29T10:28:11.300Z,19.61
2022-08-29T10:29:10.853Z,19.69
2022-08-29T10:30:11.596Z,19.70
2022-08-29T10:31:10.805Z,19.66
2022-08-29T10:32:11.173Z,19.59
2022-08-29T10:33:10.971Z,19.60
2022-08-29T10:34:11.214Z,19.67
2022-08-29T10:35:11.326Z,19.74
2022-08-29T10:36:11.117Z,19.80
2022-08-29T10:37:10.720Z,19.89
2022-08-29T10:38:11.154Z,19.86
2022-08-29T10:39:10.950Z,19.86
2022-08-29T10:40:17.494Z,19.89
2022-08-29T10:41:11.833Z,19.95
2022-08-29T10:42:11.512Z,20.02
2022-08-29T10:43:11.867Z,20.03
2022-08-29T10:44:11.548Z,20.07
2022-08-29T10:45:11.252Z,20.18
2022-08-29T10:46:10.981Z,20.10
2022-08-29T10:47:10.885Z,20.09
2022-08-29T10:48:11.140Z,20.11
2022-08-29T10:49:10.808Z,20.12
2022-08-29T10:51:11.026Z,20.17
2022-08-29T10:52:10.317Z,20.20
2022-08-29T10:53:11.090Z,20.22
2022-08-29T10:54:10.925Z,20.24
2022-08-29T10:55:11.108Z,20.26
2022-08-29T10:56:10.879Z,20.30
2022-08-29T10:57:11.386Z,20.26
2022-08-29T10:58:16.793Z,20.27
2022-08-29T10:59:11.318Z,20.23
2022-08-29T11:00:12.167Z,20.22
2022-08-29T11:01:13.202Z,20.31
2022-08-29T11:02:10.843Z,20.35
2022-08-29T11:03:11.492Z,20.39
2022-08-29T11:04:11.381Z,20.47
2022-08-29T11:05:12.047Z,20.56
2022-08-29T11:06:10.478Z,20.61
2022-08-29T11:07:11.093Z,20.67
2022-08-29T11:08:14.027Z,20.74
2022-08-29T11:09:10.559Z,20.69
2022-08-29T11:10:11.074Z,20.65
2022-08-29T11:11:10.893Z,20.61
2022-08-29T11:12:11.095Z,20.60
2022-08-29T11:13:11.250Z,20.62
2022-08-29T11:14:10.874Z,20.80
2022-08-29T11:15:11.764Z,20.92
2022-08-29T11:16:11.274Z,20.95
2022-08-29T11:17:10.636Z,20.99
2022-08-29T11:18:11.299Z,21.02
2022-08-29T11:19:10.987Z,21.03
2022-08-29T11:20:10.646Z,21.05
2022-08-29T11:21:11.631Z,21.09
2022-08-29T11:22:11.261Z,21.12
2022-08-29T11:23:11.129Z,20.96
2022-08-29T11:24:10.590Z,20.91
2022-08-29T11:25:11.604Z,20.99
2022-08-29T11:26:11.493Z,20.96
2022-08-29T11:27:10.804Z,20.95
2022-08-29T11:28:11.503Z,20.96
2022-08-29T11:29:11.333Z,21.00
2022-08-29T11:30:11.274Z,21.02
2022-08-29T11:31:19.085Z,21.03
2022-08-29T11:32:10.881Z,21.04
2022-08-29T11:33:19.662Z,21.04
2022-08-29T11:34:11.266Z,21.06
2022-08-29T11:35:11.330Z,21.07
2022-08-29T11:36:11.283Z,21.07
2022-08-29T11:37:10.769Z,21.07
2022-08-29T11:38:11.040Z,21.07
2022-08-29T11:39:10.598Z,21.10
2022-08-29T11:40:11.641Z,21.09
2022-08-29T11:41:33.834Z,21.18
2022-08-29T11:42:11.400Z,21.18
2022-08-29T11:43:16.271Z,21.18
2022-08-29T11:44:10.860Z,21.21
2022-08-29T11:45:11.348Z,21.22
2022-08-29T11:46:10.705Z,21.21
2022-08-29T11:47:13.175Z,21.23
2022-08-29T11:48:11.121Z,21.25
2022-08-29T11:49:10.626Z,21.34
2022-08-29T11:50:11.446Z,21.35
2022-08-29T11:51:11.188Z,21.39
2022-08-29T11:52:11.145Z,21.42
2022-08-29T11:53:10.901Z,21.42
2022-08-29T11:54:11.305Z,21.48
2022-08-29T11:55:10.872Z,21.49
2022-08-29T11:56:11.543Z,21.44
2022-08-29T11:57:11.485Z,21.40
2022-08-29T11:58:15.174Z,21.36
2022-08-29T11:59:10.878Z,21.33
2022-08-29T12:00:12.417Z,21.26
2022-08-29T12:01:18.854Z,21.23
2022-08-29T12:02:10.867Z,21.25
2022-08-29T12:03:28.749Z,21.32
2022-08-29T12:04:11.182Z,21.32
2022-08-29T12:05:11.468Z,21.34
2022-08-29T12:06:11.089Z,21.31
2022-08-29T12:07:30.041Z,21.30
2022-08-29T12:08:39.862Z,21.38
2022-08-29T12:09:16.918Z,21.38
2022-08-29T12:10:11.346Z,21.47
2022-08-29T12:11:11.110Z,21.45
2022-08-29T12:12:10.987Z,21.51
2022-08-29T12:13:38.531Z,21.39
2022-08-29T12:14:11.206Z,21.39
2022-08-29T12:15:10.971Z,21.43
2022-08-29T12:16:12.500Z,21.47
2022-08-29T12:17:11.033Z,21.42
2022-08-29T12:18:10.894Z,21.39
2022-08-29T12:19:11.251Z,21.31
2022-08-29T12:20:10.922Z,21.31
2022-08-29T12:21:11.016Z,21.26
2022-08-29T12:22:25.320Z,21.20
2022-08-29T12:23:11.213Z,21.20
2022-08-29T12:24:10.854Z,21.12
2022-08-29T12:25:11.526Z,21.18
2022-08-29T12:27:15.659Z,21.37
2022-08-29T12:28:10.837Z,21.45
2022-08-29T12:29:14.270Z,21.49
2022-08-29T12:30:11.346Z,21.56
2022-08-29T12:31:11.303Z,21.62
2022-08-29T12:32:31.541Z,21.79
2022-08-29T12:33:11.644Z,21.79
2022-08-29T12:34:11.595Z,21.87
2022-08-29T12:35:14.448Z,21.93
2022-08-29T12:36:11.098Z,21.95
2022-08-29T12:37:10.801Z,21.95
2022-08-29T12:38:11.328Z,21.97
2022-08-29T12:39:11.056Z,21.96
2022-08-29T12:40:11.038Z,21.96
2022-08-29T12:41:10.779Z,21.99
2022-08-29T12:42:11.103Z,22.03
2022-08-29T12:43:10.992Z,22.04
2022-08-29T12:44:10.638Z,22.06
2022-08-29T12:45:11.576Z,22.08
2022-08-29T12:46:11.390Z,21.97
2022-08-29T12:47:11.494Z,21.97
2022-08-29T12:48:11.341Z,21.98
2022-08-29T12:49:10.857Z,21.99
2022-08-29T12:50:11.681Z,22.04
2022-08-29T12:51:46.798Z,22.18
2022-08-29T12:52:11.397Z,22.18
2022-08-29T12:53:11.020Z,22.23
2022-08-29T12:54:10.833Z,22.25
2022-08-29T12:55:11.518Z,22.24
2022-08-29T12:56:11.000Z,22.30
2022-08-29T12:57:10.621Z,22.32
2022-08-29T12:58:11.422Z,22.31
2022-08-29T12:59:11.028Z,22.34
2022-08-29T13:00:11.667Z,22.42
2022-08-29T13:01:11.787Z,22.50
2022-08-29T13:02:11.358Z,22.43
2022-08-29T13:03:19.137Z,22.37
2022-08-29T13:04:10.618Z,22.37
2022-08-29T13:05:11.372Z,22.39
2022-08-29T13:06:11.210Z,22.39
2022-08-29T13:07:11.034Z,22.39
2022-08-29T13:08:16.497Z,22.44